createdAt,value
2024-02-24T00:01:50.733Z,44.65
2024-02-24T00:04:18.655Z,44.71
2024-02-24T00:06:45.570Z,44.53
2024-02-24T00:09:12.605Z,44.42
2024-02-24T00:11:39.624Z,44.34
2024-02-24T00:14:07.074Z,44.38
2024-02-24T00:16:34.231Z,44.33
2024-02-24T00:19:01.253Z,44.28
2024-02-24T00:21:28.695Z,44.39
2024-02-24T00:23:56.009Z,44.35
2024-02-24T00:26:23.244Z,44.51
2024-02-24T00:28:50.729Z,44.70
2024-02-24T00:31:18.199Z,44.79
2024-02-24T00:33:45.481Z,44.90
2024-02-24T00:36:12.536Z,45.12
2024-02-24T00:38:40.162Z,45.46
2024-02-24T00:41:07.630Z,45.51
2024-02-24T00:43:34.492Z,45.43
2024-02-24T00:46:01.698Z,45.42
2024-02-24T00:48:30.286Z,45.58
2024-02-24T00:50:57.789Z,45.73
2024-02-24T00:53:25.797Z,45.79
2024-02-24T00:55:55.558Z,45.96
2024-02-24T00:58:24.820Z,46.12
2024-02-24T01:00:51.674Z,46.35
2024-02-24T01:03:21.200Z,46.34
2024-02-24T01:05:48.279Z,46.38
2024-02-24T01:08:15.536Z,46.67
2024-02-24T01:10:42.610Z,46.81
2024-02-24T01:13:09.605Z,46.79
2024-02-24T01:15:36.548Z,46.78
2024-02-24T01:18:05.918Z,46.71
2024-02-24T01:20:38.480Z,46.65
2024-02-24T01:23:08.257Z,46.60
2024-02-24T01:25:35.558Z,46.52
2024-02-24T01:28:02.515Z,46.50
2024-02-24T01:30:29.482Z,46.32
2024-02-24T01:32:56.548Z,46.23
2024-02-24T01:35:23.472Z,46.04
2024-02-24T01:37:50.424Z,45.97
2024-02-24T01:40:17.337Z,45.97
2024-02-24T01:42:47.260Z,45.95
2024-02-24T01:45:15.717Z,45.89
2024-02-24T01:47:46.140Z,45.83
2024-02-24T01:50:16.267Z,45.82
2024-02-24T01:52:50.949Z,45.76
2024-02-24T01:55:19.702Z,45.86
2024-02-24T01:57:50.733Z,45.95
2024-02-24T02:00:20.453Z,45.54
2024-02-24T02:02:48.788Z,45.50
2024-02-24T02:05:15.875Z,45.74
2024-02-24T02:07:45.575Z,45.94
2024-02-24T02:10:12.623Z,46.10
2024-02-24T02:12:39.748Z,45.95
2024-02-24T02:15:07.615Z,45.53
2024-02-24T02:17:37.790Z,45.45
2024-02-24T02:20:05.898Z,45.53
2024-02-24T02:22:36.678Z,45.71
2024-02-24T02:25:03.986Z,45.59
2024-02-24T02:27:31.214Z,45.83
2024-02-24T02:30:13.592Z,46.06
2024-02-24T02:32:40.845Z,46.33
2024-02-24T02:35:18.941Z,46.46
2024-02-24T02:37:53.749Z,46.58
2024-02-24T02:40:20.820Z,46.47
2024-02-24T02:42:50.832Z,46.77
2024-02-24T02:45:24.673Z,46.95
2024-02-24T02:47:55.127Z,47.11
2024-02-24T02:50:22.802Z,47.18
2024-02-24T02:52:50.250Z,47.38
2024-02-24T02:55:28.917Z,47.47
2024-02-24T02:57:55.812Z,47.53
2024-02-24T03:00:26.092Z,47.64
2024-02-24T03:02:53.162Z,47.94
2024-02-24T03:05:23.632Z,47.79
2024-02-24T03:07:55.783Z,47.87
2024-02-24T03:10:27.902Z,47.93
2024-02-24T03:13:05.546Z,48.04
2024-02-24T03:15:37.154Z,48.08
2024-02-24T03:18:07.070Z,48.21
2024-02-24T03:20:37.330Z,48.27
2024-02-24T03:23:06.117Z,48.26
2024-02-24T03:25:33.412Z,48.43
2024-02-24T03:28:00.329Z,48.53
2024-02-24T03:30:29.994Z,48.76
2024-02-24T03:32:57.398Z,48.80
2024-02-24T03:35:30.293Z,48.95
2024-02-24T03:37:57.998Z,49.06
2024-02-24T03:40:24.958Z,49.04
2024-02-24T03:42:58.026Z,49.14
2024-02-24T03:45:24.930Z,49.11
2024-02-24T03:47:52.567Z,49.16
2024-02-24T03:50:28.405Z,49.16
2024-02-24T03:52:55.319Z,49.20
2024-02-24T03:55:22.413Z,49.25
2024-02-24T03:57:49.357Z,49.45
2024-02-24T04:00:17.036Z,49.42
2024-02-24T04:02:44.728Z,49.35
2024-02-24T04:05:12.757Z,49.34
2024-02-24T04:07:40.495Z,49.22
2024-02-24T04:10:08.060Z,49.20
2024-02-24T04:12:35.634Z,49.14
2024-02-24T04:15:02.683Z,49.06
2024-02-24T04:17:29.752Z,49.18
2024-02-24T04:19:56.958Z,49.04
2024-02-24T04:22:24.012Z,49.08
2024-02-24T04:24:51.078Z,49.20
2024-02-24T04:27:17.980Z,49.11
2024-02-24T04:29:47.919Z,49.05
2024-02-24T04:32:18.404Z,48.98
2024-02-24T04:34:45.457Z,49.11
2024-02-24T04:37:12.695Z,49.38
2024-02-24T04:39:39.828Z,49.23
2024-02-24T04:42:07.865Z,49.18
2024-02-24T04:44:37.588Z,49.36
2024-02-24T04:47:04.546Z,49.32
2024-02-24T04:49:31.498Z,49.42
2024-02-24T04:51:58.314Z,49.37
2024-02-24T04:54:25.388Z,49.06
2024-02-24T04:56:52.227Z,49.19
2024-02-24T04:59:19.311Z,49.04
2024-02-24T05:01:49.186Z,49.01
2024-02-24T05:04:16.272Z,48.66
2024-02-24T05:06:43.623Z,48.61
2024-02-24T05:09:13.364Z,48.56
2024-02-24T05:11:50.978Z,48.62
2024-02-24T05:14:19.271Z,48.72
2024-02-24T05:16:46.383Z,48.68
2024-02-24T05:19:15.973Z,48.67
2024-02-24T05:21:44.239Z,48.73
2024-02-24T05:24:11.412Z,48.86
2024-02-24T05:26:38.391Z,48.85
2024-02-24T05:29:05.534Z,48.82
2024-02-24T05:31:32.485Z,49.05
2024-02-24T05:34:03.431Z,49.01
2024-02-24T05:36:32.627Z,48.84
2024-02-24T05:39:07.866Z,48.72
2024-02-24T05:41:35.044Z,48.67
2024-02-24T05:44:04.737Z,48.71
2024-02-24T05:46:32.058Z,48.45
2024-02-24T05:49:02.425Z,48.72
2024-02-24T05:51:29.333Z,48.83
2024-02-24T05:54:00.102Z,48.68
2024-02-24T05:56:29.430Z,48.52
2024-02-24T05:58:56.280Z,48.29
2024-02-24T06:01:28.131Z,48.28
2024-02-24T06:03:57.544Z,48.26
2024-02-24T06:06:26.744Z,48.16
2024-02-24T06:08:54.420Z,48.10
2024-02-24T06:11:21.565Z,48.17
2024-02-24T06:13:48.898Z,48.00
2024-02-24T06:16:18.897Z,47.95
2024-02-24T06:18:46.051Z,47.75
2024-02-24T06:21:16.104Z,46.78
2024-02-24T06:23:46.224Z,46.60
2024-02-24T06:26:13.226Z,46.42
2024-02-24T06:28:40.065Z,46.17
2024-02-24T06:31:07.142Z,45.63
2024-02-24T06:33:34.160Z,44.56
2024-02-24T06:36:03.232Z,43.45
2024-02-24T06:38:30.264Z,42.26
2024-02-24T06:40:57.167Z,40.55
2024-02-24T06:43:24.018Z,38.78
2024-02-24T06:45:50.859Z,37.28
2024-02-24T06:48:17.983Z,35.28
2024-02-24T06:50:45.536Z,33.78
2024-02-24T06:53:12.602Z,32.22
2024-02-24T06:55:39.602Z,31.13
2024-02-24T06:58:06.429Z,29.78
2024-02-24T07:00:33.304Z,28.79
2024-02-24T07:03:00.760Z,27.40
2024-02-24T07:05:27.728Z,26.31
2024-02-24T07:07:56.969Z,25.38
2024-02-24T07:10:26.809Z,24.68
2024-02-24T07:13:02.791Z,22.74
2024-02-24T07:15:29.892Z,23.13
2024-02-24T07:17:57.007Z,23.48
2024-02-24T07:20:24.057Z,23.22
2024-02-24T07:22:51.020Z,22.64
2024-02-24T07:25:18.055Z,22.05
2024-02-24T07:27:44.921Z,21.61
2024-02-24T07:30:12.178Z,20.98
2024-02-24T07:32:41.300Z,20.66
2024-02-24T07:35:09.923Z,20.17
2024-02-24T07:37:36.877Z,19.72
2024-02-24T07:40:04.000Z,19.28
2024-02-24T07:42:31.680Z,18.33
2024-02-24T07:44:58.698Z,18.75
2024-02-24T07:47:25.676Z,18.69
2024-02-24T07:49:53.038Z,18.50
2024-02-24T07:52:20.005Z,18.44
2024-02-24T07:54:47.081Z,18.48
2024-02-24T07:57:13.987Z,18.24
2024-02-24T07:59:40.946Z,18.05
2024-02-24T08:02:07.875Z,17.89
2024-02-24T08:04:34.785Z,17.35
2024-02-24T08:07:01.724Z,17.23
2024-02-24T08:09:28.581Z,16.29
2024-02-24T08:11:55.734Z,16.47
2024-02-24T08:14:24.866Z,16.47
2024-02-24T08:16:51.729Z,16.28
2024-02-24T08:19:18.750Z,15.96
2024-02-24T08:21:48.705Z,15.70
2024-02-24T08:24:17.731Z,15.77
2024-02-24T08:26:46.905Z,16.28
2024-02-24T08:29:13.886Z,16.28
2024-02-24T08:31:44.208Z,16.28
2024-02-24T08:34:11.691Z,17.12
2024-02-24T08:36:39.394Z,17.41
2024-02-24T08:39:07.312Z,17.51
2024-02-24T08:41:37.500Z,17.79
2024-02-24T08:44:06.559Z,18.05
2024-02-24T08:46:34.841Z,18.84
2024-02-24T08:49:01.965Z,18.98
2024-02-24T08:51:31.049Z,18.68
2024-02-24T08:53:57.875Z,19.52
2024-02-24T08:56:26.501Z,20.70
2024-02-24T08:58:53.817Z,23.01
2024-02-24T09:01:20.843Z,21.74
2024-02-24T09:03:47.903Z,21.56
2024-02-24T09:06:15.989Z,20.99
2024-02-24T09:08:43.653Z,20.46
2024-02-24T09:11:10.966Z,18.95
2024-02-24T09:13:38.014Z,19.67
2024-02-24T09:16:05.199Z,20.33
2024-02-24T09:18:32.814Z,21.48
2024-02-24T09:20:59.754Z,23.15
2024-02-24T09:23:35.933Z,22.70
2024-02-24T09:26:03.566Z,21.76
2024-02-24T09:28:30.552Z,21.77
2024-02-24T09:30:57.456Z,21.96
2024-02-24T09:33:24.488Z,23.47
2024-02-24T09:35:51.566Z,24.46
2024-02-24T09:38:18.438Z,23.43
2024-02-24T09:40:45.335Z,22.80
2024-02-24T09:43:26.612Z,23.08
2024-02-24T09:45:55.312Z,22.73
2024-02-24T09:48:31.167Z,22.69
2024-02-24T09:51:03.031Z,22.94
2024-02-24T09:53:30.137Z,23.06
2024-02-24T09:55:59.291Z,23.13
2024-02-24T09:58:28.966Z,22.95
2024-02-24T10:00:55.942Z,23.57
2024-02-24T10:03:26.500Z,23.74
2024-02-24T10:05:53.568Z,22.95
2024-02-24T10:08:41.499Z,23.45
2024-02-24T10:11:12.664Z,23.27
2024-02-24T10:13:44.368Z,23.21
2024-02-24T10:16:12.701Z,22.87
2024-02-24T10:18:46.086Z,22.73
2024-02-24T10:21:13.097Z,22.96
2024-02-24T10:23:50.219Z,22.72
2024-02-24T10:26:17.184Z,23.31
2024-02-24T10:28:47.213Z,23.51
2024-02-24T10:31:15.581Z,23.77
2024-02-24T10:33:43.439Z,23.84
2024-02-24T10:36:11.528Z,23.61
2024-02-24T10:38:48.073Z,23.75
2024-02-24T10:41:23.516Z,24.06
2024-02-24T10:44:02.353Z,24.58
2024-02-24T10:46:37.631Z,25.17
2024-02-24T10:49:12.570Z,25.27
2024-02-24T10:51:39.937Z,25.30
2024-02-24T10:54:17.561Z,25.26
2024-02-24T10:56:46.463Z,25.58
2024-02-24T10:59:13.613Z,25.78
2024-02-24T11:01:47.166Z,26.07
2024-02-24T11:04:17.861Z,26.61
2024-02-24T11:06:53.557Z,26.74
2024-02-24T11:09:31.533Z,26.99
2024-02-24T11:12:21.399Z,27.04
2024-02-24T11:14:49.296Z,27.05
2024-02-24T11:17:45.927Z,26.91
2024-02-24T11:20:13.649Z,27.11
2024-02-24T11:22:40.600Z,27.36
2024-02-24T11:25:07.610Z,27.20
2024-02-24T11:27:43.466Z,27.29
2024-02-24T11:30:35.260Z,27.71
2024-02-24T11:33:25.152Z,28.22
2024-02-24T11:35:53.357Z,28.62
2024-02-24T11:38:20.938Z,28.49
2024-02-24T11:40:49.634Z,28.51
2024-02-24T11:43:21.499Z,28.55
2024-02-24T11:45:56.412Z,28.46
2024-02-24T11:48:34.668Z,28.69
2024-02-24T11:51:01.757Z,28.81
2024-02-24T11:53:32.219Z,28.94
2024-02-24T11:56:01.698Z,29.07
2024-02-24T11:58:28.767Z,29.13
2024-02-24T12:00:58.583Z,29.17
2024-02-24T12:03:25.684Z,29.22
2024-02-24T12:06:06.242Z,29.20
2024-02-24T12:08:35.294Z,29.39
2024-02-24T12:11:02.538Z,29.54
2024-02-24T12:13:29.512Z,29.51
2024-02-24T12:16:01.683Z,29.75
2024-02-24T12:18:30.724Z,29.84
2024-02-24T12:21:02.890Z,29.86
2024-02-24T12:23:34.981Z,29.95
2024-02-24T12:26:24.722Z,30.06
2024-02-24T12:28:52.365Z,30.05
2024-02-24T12:31:19.822Z,29.99
2024-02-24T12:33:47.544Z,30.22
2024-02-24T12:36:19.888Z,30.27
2024-02-24T12:38:49.953Z,30.40
2024-02-24T12:41:17.525Z,30.59
2024-02-24T12:43:46.651Z,30.64
2024-02-24T12:46:13.796Z,30.66
2024-02-24T12:48:43.747Z,30.68
2024-02-24T12:51:16.348Z,30.76
2024-02-24T12:53:43.635Z,30.56
2024-02-24T12:56:10.730Z,30.53
2024-02-24T12:58:40.157Z,30.61
2024-02-24T13:01:14.004Z,30.65
2024-02-24T13:03:40.984Z,30.46
2024-02-24T13:06:08.078Z,30.56
2024-02-24T13:08:35.424Z,30.70
2024-02-24T13:11:02.780Z,30.76
2024-02-24T13:13:30.007Z,30.92
2024-02-24T13:15:57.001Z,31.06
2024-02-24T13:18:24.201Z,31.21
2024-02-24T13:20:51.309Z,31.39
2024-02-24T13:23:18.535Z,31.52
2024-02-24T13:25:48.260Z,31.57
2024-02-24T13:28:15.231Z,31.68
2024-02-24T13:30:42.394Z,31.76
2024-02-24T13:33:11.645Z,31.77
2024-02-24T13:35:38.629Z,31.85
2024-02-24T13:38:05.750Z,31.86
2024-02-24T13:40:32.952Z,31.93
2024-02-24T13:43:01.337Z,32.02
2024-02-24T13:45:30.754Z,32.35
2024-02-24T13:48:00.927Z,32.57
2024-02-24T13:50:28.300Z,32.53
2024-02-24T13:52:55.892Z,32.47
2024-02-24T13:55:34.322Z,32.60
2024-02-24T13:58:04.370Z,32.71
2024-02-24T14:00:31.456Z,32.74
2024-02-24T14:03:00.652Z,32.76
2024-02-24T14:06:04.018Z,32.86
2024-02-24T14:08:29.081Z,32.73
2024-02-24T14:10:56.009Z,32.50
2024-02-24T14:13:23.050Z,32.71
2024-02-24T14:15:53.029Z,32.96
2024-02-24T14:18:22.977Z,32.83
2024-02-24T14:20:49.879Z,32.73
2024-02-24T14:23:16.852Z,32.64
2024-02-24T14:25:43.771Z,32.66
2024-02-24T14:28:11.868Z,32.64
2024-02-24T14:30:39.687Z,32.81
2024-02-24T14:33:10.305Z,32.96
2024-02-24T14:35:44.657Z,32.93
2024-02-24T14:38:11.665Z,32.89
2024-02-24T14:40:38.854Z,32.99
2024-02-24T14:43:06.520Z,32.79
2024-02-24T14:45:33.412Z,32.66
2024-02-24T14:48:05.606Z,32.90
2024-02-24T14:50:33.404Z,32.99
2024-02-24T14:53:00.815Z,33.06
2024-02-24T14:55:27.690Z,33.09
2024-02-24T14:57:54.827Z,33.05
2024-02-24T15:00:27.434Z,33.18
2024-02-24T15:03:08.315Z,33.22
2024-02-24T15:05:37.656Z,33.45
2024-02-24T15:08:05.095Z,33.61
2024-02-24T15:10:32.579Z,33.68
2024-02-24T15:12:59.380Z,33.85
2024-02-24T15:15:26.340Z,33.62
2024-02-24T15:17:54.332Z,33.73
2024-02-24T15:20:21.810Z,33.79
2024-02-24T15:22:49.772Z,33.83
2024-02-24T15:25:16.898Z,34.01
2024-02-24T15:27:43.865Z,34.12
2024-02-24T15:30:11.660Z,34.13
2024-02-24T15:32:38.745Z,34.19
2024-02-24T15:35:06.772Z,34.19
2024-02-24T15:37:36.518Z,34.20
2024-02-24T15:40:08.885Z,34.38
2024-02-24T15:42:36.796Z,34.56
2024-02-24T15:45:04.945Z,34.53
2024-02-24T15:47:32.023Z,34.40
2024-02-24T15:49:58.999Z,34.57
2024-02-24T15:52:26.011Z,34.72
2024-02-24T15:54:54.436Z,34.81
2024-02-24T15:57:21.328Z,34.71
2024-02-24T15:59:48.258Z,34.82
2024-02-24T16:02:16.122Z,34.78
2024-02-24T16:04:43.803Z,34.97
2024-02-24T16:07:10.965Z,35.11
2024-02-24T16:09:38.130Z,35.30
2024-02-24T16:12:06.168Z,35.31
2024-02-24T16:14:33.209Z,35.40
2024-02-24T16:17:03.933Z,35.52
2024-02-24T16:19:31.230Z,35.43
2024-02-24T16:21:58.271Z,35.66
2024-02-24T16:24:36.021Z,35.70
2024-02-24T16:27:15.603Z,35.76
2024-02-24T16:30:33.408Z,35.64
2024-02-24T16:33:12.069Z,35.68
2024-02-24T16:35:48.218Z,35.76
2024-02-24T16:38:15.208Z,35.85
2024-02-24T16:40:43.037Z,35.86
2024-02-24T16:43:13.238Z,35.86
2024-02-24T16:45:40.030Z,35.89
2024-02-24T16:48:07.457Z,36.05
2024-02-24T16:50:34.667Z,36.03
2024-02-24T16:53:01.597Z,36.12
2024-02-24T16:55:28.511Z,36.10
2024-02-24T16:57:55.446Z,36.23
2024-02-24T17:00:27.343Z,36.28
2024-02-24T17:02:54.348Z,36.43
2024-02-24T17:05:22.241Z,36.39
2024-02-24T17:07:56.808Z,36.66
2024-02-24T17:10:24.019Z,36.72
2024-02-24T17:12:53.493Z,36.69
2024-02-24T17:15:23.558Z,36.80
2024-02-24T17:17:51.019Z,36.94
2024-02-24T17:20:18.248Z,37.12
2024-02-24T17:22:47.723Z,37.05
2024-02-24T17:25:16.837Z,36.97
2024-02-24T17:27:45.929Z,36.92
2024-02-24T17:30:14.721Z,36.81
2024-02-24T17:32:47.154Z,36.76
2024-02-24T17:35:14.266Z,36.65
2024-02-24T17:37:41.411Z,36.91
2024-02-24T17:40:09.683Z,36.99
2024-02-24T17:42:36.910Z,36.97
2024-02-24T17:45:06.813Z,36.81
2024-02-24T17:47:33.820Z,36.96
2024-02-24T17:50:01.157Z,37.13
2024-02-24T17:52:28.285Z,37.04
2024-02-24T17:54:56.682Z,37.18
2024-02-24T17:57:23.748Z,37.32
2024-02-24T17:59:50.750Z,37.32
2024-02-24T18:02:17.628Z,37.38
2024-02-24T18:04:47.292Z,37.38
2024-02-24T18:07:14.397Z,37.47
2024-02-24T18:09:41.472Z,37.51
2024-02-24T18:12:09.090Z,37.53
2024-02-24T18:14:37.218Z,36.97
2024-02-24T18:17:04.618Z,36.77
2024-02-24T18:19:32.140Z,36.77
2024-02-24T18:22:04.063Z,36.75
2024-02-24T18:24:31.192Z,37.04
2024-02-24T18:26:58.771Z,37.26
2024-02-24T18:29:27.174Z,37.46
2024-02-24T18:31:54.388Z,37.51
2024-02-24T18:34:24.675Z,37.47
2024-02-24T18:36:51.881Z,37.74
2024-02-24T18:39:18.776Z,37.80
2024-02-24T18:41:45.964Z,37.73
2024-02-24T18:44:16.067Z,37.75
2024-02-24T18:46:46.025Z,37.81
2024-02-24T18:49:13.080Z,37.72
2024-02-24T18:51:40.087Z,37.48
2024-02-24T18:54:10.986Z,37.53
2024-02-24T18:56:38.789Z,37.52
2024-02-24T18:59:08.420Z,37.62
2024-02-24T19:01:35.382Z,37.31
2024-02-24T19:04:05.168Z,37.28
2024-02-24T19:06:32.433Z,37.30
2024-02-24T19:09:00.695Z,37.30
2024-02-24T19:11:29.533Z,37.53
2024-02-24T19:14:02.414Z,37.51
2024-02-24T19:16:30.514Z,37.39
2024-02-24T19:18:58.237Z,37.42
2024-02-24T19:21:28.337Z,37.66
2024-02-24T19:23:55.553Z,38.39
2024-02-24T19:26:23.866Z,39.24
2024-02-24T19:28:51.468Z,39.80
2024-02-24T19:31:21.155Z,40.09
2024-02-24T19:33:48.279Z,40.61
2024-02-24T19:36:20.176Z,40.51
2024-02-24T19:38:50.471Z,40.64
2024-02-24T19:41:23.133Z,41.04
2024-02-24T19:43:50.390Z,41.10
2024-02-24T19:46:19.979Z,41.28
2024-02-24T19:48:47.038Z,41.33
2024-02-24T19:51:14.155Z,41.18
2024-02-24T19:53:41.569Z,41.00
2024-02-24T19:56:08.454Z,40.71
2024-02-24T19:58:39.613Z,40.60
2024-02-24T20:01:12.923Z,40.14
2024-02-24T20:03:41.312Z,40.07
2024-02-24T20:06:08.966Z,39.98
2024-02-24T20:08:36.229Z,39.76
2024-02-24T20:11:03.294Z,39.57
2024-02-24T20:13:30.125Z,39.80
2024-02-24T20:15:56.929Z,39.41
2024-02-24T20:18:26.766Z,39.16
2024-02-24T20:20:54.213Z,39.55
2024-02-24T20:23:23.847Z,39.73
2024-02-24T20:25:54.818Z,39.66
2024-02-24T20:28:21.822Z,39.74
2024-02-24T20:30:49.801Z,39.74
2024-02-24T20:33:16.833Z,39.67
2024-02-24T20:35:43.858Z,39.86
2024-02-24T20:38:10.887Z,39.80
2024-02-24T20:40:38.317Z,39.77
2024-02-24T20:43:07.649Z,39.89
2024-02-24T20:45:34.503Z,39.62
2024-02-24T20:48:01.712Z,39.77
2024-02-24T20:50:31.341Z,39.27
2024-02-24T20:52:58.850Z,39.93
2024-02-24T20:55:26.578Z,40.20
2024-02-24T20:57:55.521Z,39.90
2024-02-24T21:00:22.464Z,39.92
2024-02-24T21:02:49.589Z,39.83
2024-02-24T21:05:16.765Z,39.66
2024-02-24T21:07:45.503Z,39.57
2024-02-24T21:10:12.609Z,39.50
2024-02-24T21:12:39.693Z,39.60
2024-02-24T21:15:07.607Z,39.10
2024-02-24T21:17:35.714Z,39.22
2024-02-24T21:20:06.324Z,39.38
2024-02-24T21:22:34.225Z,39.53
2024-02-24T21:25:01.288Z,40.26
2024-02-24T21:27:28.159Z,41.36
2024-02-24T21:29:55.037Z,41.39
2024-02-24T21:32:22.324Z,41.34
2024-02-24T21:34:49.859Z,41.35
2024-02-24T21:37:21.542Z,41.31
2024-02-24T21:39:51.660Z,40.53
2024-02-24T21:42:18.881Z,40.67
2024-02-24T21:44:48.928Z,41.21
2024-02-24T21:47:15.782Z,41.67
2024-02-24T21:49:42.548Z,41.76
2024-02-24T21:52:09.537Z,41.74
2024-02-24T21:54:36.529Z,41.74
2024-02-24T21:57:03.857Z,41.38
2024-02-24T21:59:31.203Z,41.45
2024-02-24T22:02:01.257Z,41.48
2024-02-24T22:04:29.589Z,41.64
2024-02-24T22:06:56.538Z,41.27
2024-02-24T22:09:23.900Z,41.11
2024-02-24T22:11:50.851Z,40.88
2024-02-24T22:14:22.586Z,40.80
2024-02-24T22:16:50.138Z,40.65
2024-02-24T22:19:17.545Z,40.55
2024-02-24T22:21:45.206Z,40.47
2024-02-24T22:24:12.308Z,40.51
2024-02-24T22:26:40.501Z,40.48
2024-02-24T22:29:07.572Z,40.75
2024-02-24T22:31:37.749Z,40.74
2024-02-24T22:34:05.090Z,40.99
2024-02-24T22:36:32.257Z,41.12
2024-02-24T22:38:59.356Z,41.30
2024-02-24T22:41:26.685Z,41.53
2024-02-24T22:43:56.225Z,41.86
2024-02-24T22:46:24.440Z,42.28
2024-02-24T22:48:51.760Z,42.64
2024-02-24T22:51:20.038Z,42.76
2024-02-24T22:53:47.099Z,43.23
2024-02-24T22:56:14.314Z,43.27
2024-02-24T22:58:50.394Z,43.65
2024-02-24T23:01:17.334Z,43.76
2024-02-24T23:03:44.624Z,44.02
2024-02-24T23:06:12.387Z,44.09
2024-02-24T23:08:42.139Z,44.17
2024-02-24T23:11:09.296Z,44.31
2024-02-24T23:13:39.251Z,44.41
2024-02-24T23:16:06.566Z,44.24
2024-02-24T23:18:34.429Z,44.63
2024-02-24T23:21:03.886Z,44.67
2024-02-24T23:23:33.526Z,44.81
2024-02-24T23:26:01.785Z,44.95
2024-02-24T23:28:28.761Z,45.03
2024-02-24T23:30:57.172Z,45.07
2024-02-24T23:33:26.651Z,45.35
2024-02-24T23:35:56.538Z,45.51
2024-02-24T23:38:23.621Z,45.61
2024-02-24T23:40:50.494Z,45.76
2024-02-24T23:43:17.269Z,45.87
2024-02-24T23:45:44.350Z,45.91
2024-02-24T23:48:11.571Z,45.67
2024-02-24T23:50:38.827Z,45.29
2024-02-24T23:53:05.867Z,44.98
2024-02-24T23:55:32.915Z,44.80
2024-02-24T23:57:59.761Z,44.58
